Observations for Trim Market St
| Time | AQI | Temp °C | Hum % | Pres Pa | CO μg/m³ | H₂S μg/m³ | NO μg/m³ | NO₂ μg/m³ | O₃ μg/m³ | SO₂ μg/m³ | PM1 μg/m³ | PM2.5 μg/m³ | PM10 μg/m³ |
|---|---|---|---|---|---|---|---|---|---|---|---|---|---|
| Sunday 16 August 2026 | |||||||||||||
| 02:39 | 2 | 15.6 | 65 | 57,566 | 0.23 | 0 | 1.42 | 8.31 | 50.76 | 0 | 3.56 | 5.25 | 7.53 |
| 02:38 | 2 | 15.6 | 65 | 57,574 | 0.23 | 0 | 1.33 | 7.79 | 49.67 | 0 | 2.85 | 4.76 | 6.87 |
| 02:36 | 2 | 15.6 | 65 | 57,588 | 0.23 | 0 | 1.4 | 8.18 | 52.89 | 0 | 2.14 | 4.76 | 6.87 |
| 02:35 | 2 | 15.6 | 65 | 57,597 | 0.23 | 0 | 1.45 | 7.65 | 49.04 | 0 | 2.14 | 4.27 | 6.87 |
| 02:34 | 2 | 15.6 | 65 | 57,603 | 0.22 | 0 | 1.45 | 8.3 | 49.9 | 0 | 2.85 | 4.28 | 6.22 |
| 02:33 | 2 | 15.7 | 65 | 57,612 | 0.23 | 0 | 1.75 | 7.86 | 51.84 | 0 | 1.43 | 3.78 | 5.56 |
| 02:13 | 2 | 15.7 | 64 | 57,712 | 0.22 | 0 | 1.38 | 7.92 | 54.74 | 0 | 2.14 | 3.33 | 4.88 |
| 02:10 | 2 | 15.7 | 64 | 57,732 | 0.22 | 0 | 1.47 | 9.21 | 51.22 | 0 | 2.85 | 4.33 | 8.19 |
| 02:09 | 2 | 15.8 | 64 | 57,737 | 0.22 | 0 | 1.31 | 7.99 | 52.39 | 0 | 1.43 | 2.85 | 4.88 |
| 02:05 | 2 | 15.7 | 64 | 57,753 | 0.22 | 0 | 1.31 | 7.15 | 54.54 | 0 | 2.14 | 4.34 | 6.2 |
| 01:58 | 2 | 15.7 | 63 | 57,783 | 0.22 | 0 | 1.51 | 7.86 | 53.18 | 0 | 0 | 2.38 | 3.53 |
| 01:57 | 2 | 15.8 | 63 | 57,789 | 0.21 | 0 | 1.47 | 8.07 | 54.43 | 0 | 2.14 | 3.37 | 4.86 |
| 01:56 | 2 | 15.7 | 63 | 57,794 | 0.2 | 0 | 1.4 | 8.13 | 52.18 | 0 | 1.43 | 2.88 | 4.19 |
| 01:55 | 2 | 15.7 | 63 | 57,798 | 0.22 | 0 | 1.34 | 7.46 | 49.89 | 0 | 1.43 | 3.37 | 6.19 |
| 01:54 | 2 | 15.7 | 63 | 57,803 | 0.22 | 0 | 1.25 | 7.72 | 50.74 | 0 | 1.43 | 3.88 | 5.53 |
| 01:53 | 2 | 15.8 | 63 | 57,806 | 0.2 | 0 | 1.19 | 7.92 | 50.06 | 0 | 1.43 | 2.88 | 4.19 |
| 01:52 | 2 | 15.8 | 63 | 57,811 | 0.19 | 0 | 1.22 | 7.4 | 52.41 | 0 | 2.14 | 3.38 | 4.86 |
| 01:51 | 2 | 15.8 | 63 | 57,814 | 0.2 | 0 | 1.2 | 8.06 | 45.26 | 0 | 1.43 | 2.89 | 4.19 |
| 01:50 | 2 | 15.8 | 63 | 57,819 | 0.18 | 0 | 1.18 | 7.16 | 48.09 | 0 | 1.43 | 2.89 | 4.85 |
| 01:49 | 2 | 15.8 | 63 | 57,825 | 0.19 | 0 | 1.21 | 8.85 | 55.72 | 0 | 2.14 | 3.88 | 6.86 |